Point Hope, AK

9:33 PM AKST on November 18, 2017 (GMT -0900)
Point Hope | | Change Station
Active Advisory: Blizzard Warning

Elev 13 ft 68.35 °N, 166.80 °W | Updated 29 minutes ago

Snow
Snow
21 °F
Feels Like 2 °F
N
36
Wind Variable Wind from ESE
Gusts 43 mph

Today
High -- | Low -- °F
--% Chance of Precip.
Yesterday
High -- | Low -- °F
Precip. -- in
Pressure 29.47 in
Visibility 1.8 miles
Clouds Overcast 1300 ft
Windchill 2 °F
Dew Point 19 °F
Humidity 93%
Rainfall 0.00 in
Snow Depth Not available.
11:43 AM 4:00 PM
New Moon, 1% visible
SPECI PAPO 190604Z AUTO 12031G37KT 1 3/4SM BLSN BR OVC013 M06/M07 A2947 RMK AO2 PK WND 11038/0559 FZRANO
Pressure 29.47 in
Visibility 1.8 miles
Clouds Overcast 1300 ft
Windchill 2 °F
Dew Point 19 °F
Humidity 93%
Rainfall 0.00 in
Snow Depth Not available.
11:43 AM 4:00 PM
New Moon, 1% visible
SPECI PAPO 190604Z AUTO 12031G37KT 1 3/4SM BLSN BR OVC013 M06/M07 A2947 RMK AO2 PK WND 11038/0559 FZRANO

Get Your Daily Forecast Email!

Thanks for signing up!

Be on the lookout for a verification email in your inbox.

You'll start receiving severe weather alerts in your inbox..

×

10-Day Weather Forecast

Almanac

Astronomy

Nov. 18, 2017 Rise Set
Actual Time
Civil Twilight
Nautical Twilight
Astronomical Twilight
Moon
Length of Visible Light
Length of Day
Tomorrow will be .
, % of the Moon is Illuminated

Today's Extremes

State Highs State Lows

Community

WunderPhotos

Category 6

Welcome to Category 6. This is the collective home for Weather Underground's featured writeups by Dr. Jeff Masters (right), Bob Henson (left), Chris Burt, and other regular contributors.

Nearby

Air Quality

  Air Quality AQ Index Pollutant
Not available.

Snow Depth

Station Depth Elevation

Earthquake Activity

City Distance Mag. Time & Date
Minimum magnitude displayed is 2.5.

Coastal Water Temperatures

Place Temperature

Stations

Nearby Weather Stations

Station Location Temp. Windchill Dew Point Humidity Wind Precip. Elev Updated Type
                   

Watches & Warnings

Blizzard Warning
Issued: 8:11 PM AKST Nov. 18, 2017 – National Weather Service

... Blizzard Warning remains in effect until 3 PM akst Sunday...

* what... blizzard conditions expected. Travel will be very
dangerous to impossible. Total snow accumulations of 4 to 8
inches are expected.

* Where... Chukchi Sea coast.

* When... blizzard conditions are expected through Sunday. The
worst conditions are expected late tonight. Conditions are
expected to improve Sunday afternoon.

* Additional details... winds gusting as high as 50 mph will
cause whiteout conditions in blowing snow. Significant
drifting of the snow is likely.

Precautionary/preparedness actions...

A Blizzard Warning means severe winter weather conditions are
expected or occurring. Falling and blowing snow with strong winds
and poor visibilities are likely. This will lead to whiteout
conditions, making travel extremely dangerous.